sensor_id;sensor_type;location;lat;lon;timestamp;P1;durP1;ratioP1;P2;durP2;ratioP2
53261;SDS011;39658;51.090;-1.786;2023-08-07T00:00:36;10.70;;;2.58;;
53261;SDS011;39658;51.090;-1.786;2023-08-07T00:03:03;10.27;;;2.22;;
53261;SDS011;39658;51.090;-1.786;2023-08-07T00:05:30;10.32;;;2.38;;
53261;SDS011;39658;51.090;-1.786;2023-08-07T00:07:56;7.03;;;2.55;;
53261;SDS011;39658;51.090;-1.786;2023-08-07T00:10:25;10.27;;;2.75;;
53261;SDS011;39658;51.090;-1.786;2023-08-07T00:12:51;8.55;;;2.33;;
53261;SDS011;39658;51.090;-1.786;2023-08-07T00:15:19;10.40;;;2.40;;
53261;SDS011;39658;51.090;-1.786;2023-08-07T00:17:45;12.60;;;2.75;;
53261;SDS011;39658;51.090;-1.786;2023-08-07T00:20:12;7.85;;;1.90;;
53261;SDS011;39658;51.090;-1.786;2023-08-07T00:22:39;6.82;;;2.30;;
53261;SDS011;39658;51.090;-1.786;2023-08-07T00:25:06;6.57;;;2.65;;
53261;SDS011;39658;51.090;-1.786;2023-08-07T00:27:34;5.82;;;2.40;;
53261;SDS011;39658;51.090;-1.786;2023-08-07T00:30:01;9.00;;;3.58;;
53261;SDS011;39658;51.090;-1.786;2023-08-07T00:32:28;5.70;;;1.80;;
53261;SDS011;39658;51.090;-1.786;2023-08-07T00:34:55;5.80;;;1.90;;
53261;SDS011;39658;51.090;-1.786;2023-08-07T00:37:21;10.35;;;2.78;;
53261;SDS011;39658;51.090;-1.786;2023-08-07T00:39:48;6.47;;;2.33;;
53261;SDS011;39658;51.090;-1.786;2023-08-07T00:42:15;8.05;;;2.45;;
53261;SDS011;39658;51.090;-1.786;2023-08-07T00:44:43;7.20;;;1.92;;
53261;SDS011;39658;51.090;-1.786;2023-08-07T00:47:10;5.93;;;2.63;;
53261;SDS011;39658;51.090;-1.786;2023-08-07T00:49:37;5.05;;;1.58;;
53261;SDS011;39658;51.090;-1.786;2023-08-07T00:52:04;6.40;;;2.33;;
53261;SDS011;39658;51.090;-1.786;2023-08-07T00:54:32;10.18;;;2.63;;
53261;SDS011;39658;51.090;-1.786;2023-08-07T00:57:00;11.05;;;2.22;;
53261;SDS011;39658;51.090;-1.786;2023-08-07T00:59:35;5.50;;;2.40;;
53261;SDS011;39658;51.090;-1.786;2023-08-07T01:02:04;6.68;;;2.20;;
53261;SDS011;39658;51.090;-1.786;2023-08-07T01:04:31;6.47;;;2.35;;
53261;SDS011;39658;51.090;-1.786;2023-08-07T01:06:58;7.15;;;2.50;;
53261;SDS011;39658;51.090;-1.786;2023-08-07T01:09:25;5.07;;;2.53;;
53261;SDS011;39658;51.090;-1.786;2023-08-07T01:11:54;5.20;;;2.30;;
53261;SDS011;39658;51.090;-1.786;2023-08-07T01:14:28;5.80;;;1.83;;
53261;SDS011;39658;51.090;-1.786;2023-08-07T01:17:00;10.25;;;2.33;;
53261;SDS011;39658;51.090;-1.786;2023-08-07T01:19:33;9.80;;;2.95;;
53261;SDS011;39658;51.090;-1.786;2023-08-07T01:22:06;6.85;;;2.40;;
53261;SDS011;39658;51.090;-1.786;2023-08-07T01:24:33;8.38;;;2.17;;
53261;SDS011;39658;51.090;-1.786;2023-08-07T01:27:02;6.28;;;2.70;;
53261;SDS011;39658;51.090;-1.786;2023-08-07T01:29:42;6.13;;;2.15;;
53261;SDS011;39658;51.090;-1.786;2023-08-07T01:32:16;4.57;;;2.45;;
53261;SDS011;39658;51.090;-1.786;2023-08-07T01:34:48;6.03;;;2.60;;
53261;SDS011;39658;51.090;-1.786;2023-08-07T01:37:18;8.20;;;2.28;;
53261;SDS011;39658;51.090;-1.786;2023-08-07T01:39:47;5.28;;;2.85;;
53261;SDS011;39658;51.090;-1.786;2023-08-07T01:42:16;6.85;;;2.60;;
53261;SDS011;39658;51.090;-1.786;2023-08-07T01:44:43;8.68;;;2.47;;
53261;SDS011;39658;51.090;-1.786;2023-08-07T01:47:10;8.57;;;2.28;;
53261;SDS011;39658;51.090;-1.786;2023-08-07T01:49:36;12.65;;;2.45;;
53261;SDS011;39658;51.090;-1.786;2023-08-07T01:52:04;6.40;;;2.53;;
53261;SDS011;39658;51.090;-1.786;2023-08-07T01:54:33;7.55;;;2.58;;
53261;SDS011;39658;51.090;-1.786;2023-08-07T01:56:59;6.68;;;2.58;;
53261;SDS011;39658;51.090;-1.786;2023-08-07T01:59:26;5.68;;;2.42;;
53261;SDS011;39658;51.090;-1.786;2023-08-07T02:01:53;9.00;;;2.50;;
53261;SDS011;39658;51.090;-1.786;2023-08-07T02:04:20;11.82;;;3.15;;
53261;SDS011;39658;51.090;-1.786;2023-08-07T02:06:46;9.65;;;2.60;;
53261;SDS011;39658;51.090;-1.786;2023-08-07T02:09:13;9.40;;;2.67;;
53261;SDS011;39658;51.090;-1.786;2023-08-07T02:11:41;8.82;;;2.30;;
53261;SDS011;39658;51.090;-1.786;2023-08-07T02:14:09;6.05;;;2.00;;
53261;SDS011;39658;51.090;-1.786;2023-08-07T02:16:36;7.45;;;2.70;;
53261;SDS011;39658;51.090;-1.786;2023-08-07T02:19:02;5.80;;;2.10;;
53261;SDS011;39658;51.090;-1.786;2023-08-07T02:21:29;6.13;;;2.13;;
53261;SDS011;39658;51.090;-1.786;2023-08-07T02:23:56;8.48;;;3.40;;
53261;SDS011;39658;51.090;-1.786;2023-08-07T02:26:23;7.13;;;2.53;;
53261;SDS011;39658;51.090;-1.786;2023-08-07T02:28:51;7.53;;;2.78;;
53261;SDS011;39658;51.090;-1.786;2023-08-07T02:31:18;7.07;;;2.33;;
53261;SDS011;39658;51.090;-1.786;2023-08-07T02:33:44;6.15;;;2.15;;
53261;SDS011;39658;51.090;-1.786;2023-08-07T02:36:11;8.18;;;3.03;;
53261;SDS011;39658;51.090;-1.786;2023-08-07T02:38:38;7.35;;;2.78;;
53261;SDS011;39658;51.090;-1.786;2023-08-07T02:41:04;5.40;;;2.40;;
53261;SDS011;39658;51.090;-1.786;2023-08-07T02:43:31;10.05;;;3.50;;
53261;SDS011;39658;51.090;-1.786;2023-08-07T02:46:00;8.63;;;2.10;;
53261;SDS011;39658;51.090;-1.786;2023-08-07T02:48:27;6.07;;;2.25;;
53261;SDS011;39658;51.090;-1.786;2023-08-07T02:50:54;8.45;;;2.70;;
53261;SDS011;39658;51.090;-1.786;2023-08-07T02:53:21;5.35;;;2.17;;
53261;SDS011;39658;51.090;-1.786;2023-08-07T02:55:47;5.00;;;2.42;;
53261;SDS011;39658;51.090;-1.786;2023-08-07T02:58:14;7.50;;;2.22;;
53261;SDS011;39658;51.090;-1.786;2023-08-07T03:00:41;5.25;;;1.95;;
53261;SDS011;39658;51.090;-1.786;2023-08-07T03:03:10;9.30;;;2.20;;
53261;SDS011;39658;51.090;-1.786;2023-08-07T03:05:36;8.93;;;2.42;;
53261;SDS011;39658;51.090;-1.786;2023-08-07T03:08:03;6.13;;;2.63;;
53261;SDS011;39658;51.090;-1.786;2023-08-07T03:10:30;5.05;;;1.70;;
53261;SDS011;39658;51.090;-1.786;2023-08-07T03:12:57;5.13;;;2.10;;
53261;SDS011;39658;51.090;-1.786;2023-08-07T03:15:23;7.63;;;2.50;;
53261;SDS011;39658;51.090;-1.786;2023-08-07T03:17:50;6.35;;;2.00;;
53261;SDS011;39658;51.090;-1.786;2023-08-07T03:20:18;6.82;;;2.70;;
53261;SDS011;39658;51.090;-1.786;2023-08-07T03:22:45;8.18;;;2.25;;
53261;SDS011;39658;51.090;-1.786;2023-08-07T03:25:12;8.15;;;2.83;;
53261;SDS011;39658;51.090;-1.786;2023-08-07T03:27:39;6.35;;;2.35;;
53261;SDS011;39658;51.090;-1.786;2023-08-07T03:30:06;6.78;;;2.05;;
53261;SDS011;39658;51.090;-1.786;2023-08-07T03:32:33;10.77;;;2.30;;
53261;SDS011;39658;51.090;-1.786;2023-08-07T03:35:00;7.45;;;2.63;;
53261;SDS011;39658;51.090;-1.786;2023-08-07T03:37:28;7.28;;;3.50;;
53261;SDS011;39658;51.090;-1.786;2023-08-07T03:39:54;6.50;;;2.42;;
53261;SDS011;39658;51.090;-1.786;2023-08-07T03:42:21;9.32;;;2.55;;
53261;SDS011;39658;51.090;-1.786;2023-08-07T03:44:48;5.80;;;1.90;;
53261;SDS011;39658;51.090;-1.786;2023-08-07T03:47:15;4.28;;;1.70;;
53261;SDS011;39658;51.090;-1.786;2023-08-07T03:49:41;7.70;;;2.83;;
53261;SDS011;39658;51.090;-1.786;2023-08-07T03:52:08;8.23;;;2.15;;
53261;SDS011;39658;51.090;-1.786;2023-08-07T03:54:36;4.95;;;1.98;;
53261;SDS011;39658;51.090;-1.786;2023-08-07T03:57:03;6.53;;;1.90;;
53261;SDS011;39658;51.090;-1.786;2023-08-07T03:59:30;11.20;;;2.85;;
53261;SDS011;39658;51.090;-1.786;2023-08-07T04:01:57;11.55;;;2.72;;
53261;SDS011;39658;51.090;-1.786;2023-08-07T04:04:23;8.93;;;2.85;;
53261;SDS011;39658;51.090;-1.786;2023-08-07T04:06:50;14.02;;;4.65;;
53261;SDS011;39658;51.090;-1.786;2023-08-07T04:09:17;12.02;;;4.65;;
53261;SDS011;39658;51.090;-1.786;2023-08-07T04:11:45;12.00;;;4.50;;
53261;SDS011;39658;51.090;-1.786;2023-08-07T04:14:12;10.98;;;4.28;;
53261;SDS011;39658;51.090;-1.786;2023-08-07T04:16:39;10.45;;;4.53;;
53261;SDS011;39658;51.090;-1.786;2023-08-07T04:19:06;12.52;;;4.63;;
53261;SDS011;39658;51.090;-1.786;2023-08-07T04:21:32;12.88;;;4.05;;
53261;SDS011;39658;51.090;-1.786;2023-08-07T04:23:59;12.95;;;3.97;;
53261;SDS011;39658;51.090;-1.786;2023-08-07T04:26:26;13.20;;;5.10;;
53261;SDS011;39658;51.090;-1.786;2023-08-07T04:28:54;17.27;;;4.45;;
53261;SDS011;39658;51.090;-1.786;2023-08-07T04:31:21;19.85;;;6.18;;
53261;SDS011;39658;51.090;-1.786;2023-08-07T04:33:48;13.70;;;4.68;;
53261;SDS011;39658;51.090;-1.786;2023-08-07T04:36:15;16.17;;;5.80;;
53261;SDS011;39658;51.090;-1.786;2023-08-07T04:38:42;14.38;;;4.97;;
53261;SDS011;39658;51.090;-1.786;2023-08-07T04:41:08;12.60;;;5.03;;
53261;SDS011;39658;51.090;-1.786;2023-08-07T04:43:35;18.77;;;5.18;;
53261;SDS011;39658;51.090;-1.786;2023-08-07T04:46:04;14.00;;;4.78;;
53261;SDS011;39658;51.090;-1.786;2023-08-07T04:48:30;13.82;;;4.53;;
53261;SDS011;39658;51.090;-1.786;2023-08-07T04:50:58;12.60;;;4.45;;
53261;SDS011;39658;51.090;-1.786;2023-08-07T04:53:24;13.13;;;5.15;;
53261;SDS011;39658;51.090;-1.786;2023-08-07T04:55:51;16.63;;;4.82;;
53261;SDS011;39658;51.090;-1.786;2023-08-07T04:58:18;19.17;;;4.85;;
53261;SDS011;39658;51.090;-1.786;2023-08-07T05:00:45;14.52;;;3.85;;
53261;SDS011;39658;51.090;-1.786;2023-08-07T05:03:13;11.95;;;3.83;;
53261;SDS011;39658;51.090;-1.786;2023-08-07T05:05:43;19.90;;;4.57;;
53261;SDS011;39658;51.090;-1.786;2023-08-07T05:08:10;16.30;;;4.07;;
53261;SDS011;39658;51.090;-1.786;2023-08-07T05:10:37;15.30;;;4.32;;
53261;SDS011;39658;51.090;-1.786;2023-08-07T05:13:03;11.80;;;4.45;;
53261;SDS011;39658;51.090;-1.786;2023-08-07T05:15:30;21.10;;;5.45;;
53261;SDS011;39658;51.090;-1.786;2023-08-07T05:17:57;20.33;;;4.72;;
53261;SDS011;39658;51.090;-1.786;2023-08-07T05:20:25;32.72;;;5.05;;
53261;SDS011;39658;51.090;-1.786;2023-08-07T05:22:52;19.00;;;5.53;;
53261;SDS011;39658;51.090;-1.786;2023-08-07T05:25:18;18.05;;;4.45;;
53261;SDS011;39658;51.090;-1.786;2023-08-07T05:27:45;13.32;;;5.20;;
53261;SDS011;39658;51.090;-1.786;2023-08-07T05:30:14;13.98;;;5.00;;
53261;SDS011;39658;51.090;-1.786;2023-08-07T05:32:41;13.18;;;4.95;;
53261;SDS011;39658;51.090;-1.786;2023-08-07T05:35:08;11.38;;;4.43;;
53261;SDS011;39658;51.090;-1.786;2023-08-07T05:37:37;17.45;;;5.28;;
53261;SDS011;39658;51.090;-1.786;2023-08-07T05:40:04;13.40;;;5.43;;
53261;SDS011;39658;51.090;-1.786;2023-08-07T05:42:32;11.52;;;4.18;;
53261;SDS011;39658;51.090;-1.786;2023-08-07T05:44:59;14.95;;;5.03;;
53261;SDS011;39658;51.090;-1.786;2023-08-07T05:47:26;10.43;;;4.45;;
53261;SDS011;39658;51.090;-1.786;2023-08-07T05:49:53;18.95;;;5.90;;
53261;SDS011;39658;51.090;-1.786;2023-08-07T05:52:19;22.33;;;5.88;;
53261;SDS011;39658;51.090;-1.786;2023-08-07T05:54:48;15.18;;;5.55;;
53261;SDS011;39658;51.090;-1.786;2023-08-07T05:57:14;16.52;;;5.43;;
53261;SDS011;39658;51.090;-1.786;2023-08-07T05:59:42;17.23;;;6.88;;
53261;SDS011;39658;51.090;-1.786;2023-08-07T06:02:08;18.67;;;5.85;;
53261;SDS011;39658;51.090;-1.786;2023-08-07T06:04:36;15.50;;;5.70;;
53261;SDS011;39658;51.090;-1.786;2023-08-07T06:07:04;21.30;;;6.40;;
53261;SDS011;39658;51.090;-1.786;2023-08-07T06:09:31;12.77;;;5.25;;
53261;SDS011;39658;51.090;-1.786;2023-08-07T06:11:59;15.68;;;6.32;;
53261;SDS011;39658;51.090;-1.786;2023-08-07T06:14:26;15.82;;;4.78;;
53261;SDS011;39658;51.090;-1.786;2023-08-07T06:16:53;14.77;;;4.80;;
53261;SDS011;39658;51.090;-1.786;2023-08-07T06:19:22;13.50;;;4.75;;
53261;SDS011;39658;51.090;-1.786;2023-08-07T06:21:52;14.02;;;5.07;;
53261;SDS011;39658;51.090;-1.786;2023-08-07T06:24:18;15.88;;;5.82;;
53261;SDS011;39658;51.090;-1.786;2023-08-07T06:26:45;14.02;;;4.72;;
53261;SDS011;39658;51.090;-1.786;2023-08-07T06:29:13;11.18;;;4.50;;
53261;SDS011;39658;51.090;-1.786;2023-08-07T06:31:40;11.73;;;4.03;;
53261;SDS011;39658;51.090;-1.786;2023-08-07T06:34:07;10.60;;;4.47;;
53261;SDS011;39658;51.090;-1.786;2023-08-07T06:36:33;12.18;;;4.90;;
53261;SDS011;39658;51.090;-1.786;2023-08-07T06:39:00;14.82;;;4.85;;
53261;SDS011;39658;51.090;-1.786;2023-08-07T06:41:29;15.82;;;5.03;;
53261;SDS011;39658;51.090;-1.786;2023-08-07T06:43:55;8.82;;;4.65;;
53261;SDS011;39658;51.090;-1.786;2023-08-07T06:46:23;9.25;;;3.80;;
53261;SDS011;39658;51.090;-1.786;2023-08-07T06:48:52;9.98;;;3.95;;
53261;SDS011;39658;51.090;-1.786;2023-08-07T06:51:19;11.18;;;4.60;;
53261;SDS011;39658;51.090;-1.786;2023-08-07T06:53:46;9.85;;;3.97;;
53261;SDS011;39658;51.090;-1.786;2023-08-07T06:56:12;11.77;;;4.60;;
53261;SDS011;39658;51.090;-1.786;2023-08-07T06:58:39;10.90;;;4.47;;
53261;SDS011;39658;51.090;-1.786;2023-08-07T07:01:06;12.13;;;5.10;;
53261;SDS011;39658;51.090;-1.786;2023-08-07T07:03:34;9.88;;;3.50;;
53261;SDS011;39658;51.090;-1.786;2023-08-07T07:06:01;9.80;;;3.58;;
53261;SDS011;39658;51.090;-1.786;2023-08-07T07:08:28;9.05;;;4.03;;
53261;SDS011;39658;51.090;-1.786;2023-08-07T07:10:55;11.27;;;3.58;;
53261;SDS011;39658;51.090;-1.786;2023-08-07T07:13:23;12.45;;;4.18;;
53261;SDS011;39658;51.090;-1.786;2023-08-07T07:15:52;9.48;;;3.15;;
53261;SDS011;39658;51.090;-1.786;2023-08-07T07:18:20;7.80;;;3.22;;
53261;SDS011;39658;51.090;-1.786;2023-08-07T07:20:48;10.52;;;3.35;;
53261;SDS011;39658;51.090;-1.786;2023-08-07T07:23:22;6.60;;;2.42;;
53261;SDS011;39658;51.090;-1.786;2023-08-07T07:25:48;8.75;;;3.20;;
53261;SDS011;39658;51.090;-1.786;2023-08-07T07:28:15;8.32;;;2.72;;
53261;SDS011;39658;51.090;-1.786;2023-08-07T07:30:41;7.30;;;2.78;;
53261;SDS011;39658;51.090;-1.786;2023-08-07T07:33:08;7.97;;;3.40;;
53261;SDS011;39658;51.090;-1.786;2023-08-07T07:35:37;6.80;;;2.58;;
53261;SDS011;39658;51.090;-1.786;2023-08-07T07:38:05;6.93;;;2.47;;
53261;SDS011;39658;51.090;-1.786;2023-08-07T07:40:33;9.57;;;2.97;;
53261;SDS011;39658;51.090;-1.786;2023-08-07T07:43:00;6.40;;;2.00;;
53261;SDS011;39658;51.090;-1.786;2023-08-07T07:45:27;6.45;;;2.08;;
53261;SDS011;39658;51.090;-1.786;2023-08-07T07:47:54;4.40;;;1.80;;
53261;SDS011;39658;51.090;-1.786;2023-08-07T07:50:21;5.32;;;1.83;;
53261;SDS011;39658;51.090;-1.786;2023-08-07T07:52:48;7.25;;;2.10;;
53261;SDS011;39658;51.090;-1.786;2023-08-07T07:55:16;6.53;;;2.40;;
53261;SDS011;39658;51.090;-1.786;2023-08-07T07:57:43;6.22;;;1.98;;
53261;SDS011;39658;51.090;-1.786;2023-08-07T08:00:11;4.97;;;2.17;;
53261;SDS011;39658;51.090;-1.786;2023-08-07T08:02:38;7.13;;;1.70;;
53261;SDS011;39658;51.090;-1.786;2023-08-07T08:05:08;4.60;;;1.73;;
53261;SDS011;39658;51.090;-1.786;2023-08-07T08:07:35;4.40;;;1.63;;
53261;SDS011;39658;51.090;-1.786;2023-08-07T08:10:05;4.55;;;1.83;;
53261;SDS011;39658;51.090;-1.786;2023-08-07T08:12:33;6.35;;;1.73;;
53261;SDS011;39658;51.090;-1.786;2023-08-07T08:15:00;4.30;;;1.67;;
53261;SDS011;39658;51.090;-1.786;2023-08-07T08:17:27;4.05;;;1.90;;
53261;SDS011;39658;51.090;-1.786;2023-08-07T08:19:54;3.33;;;1.40;;
53261;SDS011;39658;51.090;-1.786;2023-08-07T08:22:21;4.05;;;1.20;;
53261;SDS011;39658;51.090;-1.786;2023-08-07T08:24:48;3.65;;;1.23;;
53261;SDS011;39658;51.090;-1.786;2023-08-07T08:27:14;3.50;;;0.90;;
53261;SDS011;39658;51.090;-1.786;2023-08-07T08:29:44;4.50;;;1.17;;
53261;SDS011;39658;51.090;-1.786;2023-08-07T08:32:11;3.15;;;1.20;;
53261;SDS011;39658;51.090;-1.786;2023-08-07T08:34:38;2.70;;;0.80;;
53261;SDS011;39658;51.090;-1.786;2023-08-07T08:37:04;2.40;;;1.05;;
53261;SDS011;39658;51.090;-1.786;2023-08-07T08:39:32;3.25;;;1.15;;
53261;SDS011;39658;51.090;-1.786;2023-08-07T08:41:59;2.80;;;0.90;;
53261;SDS011;39658;51.090;-1.786;2023-08-07T08:44:26;3.00;;;1.08;;
53261;SDS011;39658;51.090;-1.786;2023-08-07T08:46:57;2.33;;;0.82;;
53261;SDS011;39658;51.090;-1.786;2023-08-07T08:49:28;3.53;;;0.85;;
53261;SDS011;39658;51.090;-1.786;2023-08-07T08:51:59;3.40;;;0.80;;
53261;SDS011;39658;51.090;-1.786;2023-08-07T08:54:26;2.38;;;0.82;;
53261;SDS011;39658;51.090;-1.786;2023-08-07T08:56:54;2.22;;;0.73;;
53261;SDS011;39658;51.090;-1.786;2023-08-07T08:59:22;1.65;;;0.68;;
53261;SDS011;39658;51.090;-1.786;2023-08-07T09:01:50;2.00;;;0.68;;
53261;SDS011;39658;51.090;-1.786;2023-08-07T09:04:19;5.30;;;1.05;;
53261;SDS011;39658;51.090;-1.786;2023-08-07T09:06:46;3.63;;;1.10;;
53261;SDS011;39658;51.090;-1.786;2023-08-07T09:09:13;2.72;;;0.90;;
53261;SDS011;39658;51.090;-1.786;2023-08-07T09:11:41;2.40;;;0.70;;
53261;SDS011;39658;51.090;-1.786;2023-08-07T09:14:09;2.70;;;0.70;;
53261;SDS011;39658;51.090;-1.786;2023-08-07T09:16:38;3.50;;;1.25;;
53261;SDS011;39658;51.090;-1.786;2023-08-07T09:19:06;3.53;;;1.00;;
53261;SDS011;39658;51.090;-1.786;2023-08-07T09:21:34;2.95;;;1.45;;
53261;SDS011;39658;51.090;-1.786;2023-08-07T09:24:01;4.10;;;0.88;;
53261;SDS011;39658;51.090;-1.786;2023-08-07T09:26:28;2.47;;;1.00;;
53261;SDS011;39658;51.090;-1.786;2023-08-07T09:28:55;7.70;;;0.90;;
53261;SDS011;39658;51.090;-1.786;2023-08-07T09:31:22;5.70;;;1.20;;
53261;SDS011;39658;51.090;-1.786;2023-08-07T09:33:51;4.28;;;1.13;;
53261;SDS011;39658;51.090;-1.786;2023-08-07T09:36:18;5.15;;;1.02;;
53261;SDS011;39658;51.090;-1.786;2023-08-07T09:38:50;2.45;;;0.80;;
53261;SDS011;39658;51.090;-1.786;2023-08-07T09:41:17;4.13;;;0.80;;
53261;SDS011;39658;51.090;-1.786;2023-08-07T09:43:44;3.13;;;0.65;;
53261;SDS011;39658;51.090;-1.786;2023-08-07T09:46:11;3.40;;;0.80;;
53261;SDS011;39658;51.090;-1.786;2023-08-07T09:48:41;2.10;;;0.73;;
53261;SDS011;39658;51.090;-1.786;2023-08-07T09:51:08;5.47;;;1.40;;
53261;SDS011;39658;51.090;-1.786;2023-08-07T09:53:35;3.95;;;0.85;;
53261;SDS011;39658;51.090;-1.786;2023-08-07T09:56:04;2.58;;;1.00;;
53261;SDS011;39658;51.090;-1.786;2023-08-07T09:58:30;2.00;;;0.70;;
53261;SDS011;39658;51.090;-1.786;2023-08-07T10:00:58;3.83;;;0.90;;
53261;SDS011;39658;51.090;-1.786;2023-08-07T10:03:29;2.25;;;0.90;;
53261;SDS011;39658;51.090;-1.786;2023-08-07T10:05:56;3.67;;;0.73;;
53261;SDS011;39658;51.090;-1.786;2023-08-07T10:08:24;2.72;;;0.57;;
53261;SDS011;39658;51.090;-1.786;2023-08-07T10:10:51;4.43;;;1.10;;
53261;SDS011;39658;51.090;-1.786;2023-08-07T10:13:19;2.40;;;0.93;;
53261;SDS011;39658;51.090;-1.786;2023-08-07T10:15:48;2.47;;;0.77;;
53261;SDS011;39658;51.090;-1.786;2023-08-07T10:18:16;2.25;;;0.65;;
53261;SDS011;39658;51.090;-1.786;2023-08-07T10:20:43;3.33;;;0.85;;
53261;SDS011;39658;51.090;-1.786;2023-08-07T10:23:11;3.35;;;0.90;;
53261;SDS011;39658;51.090;-1.786;2023-08-07T10:25:39;2.40;;;0.70;;
53261;SDS011;39658;51.090;-1.786;2023-08-07T10:28:08;2.35;;;0.80;;
53261;SDS011;39658;51.090;-1.786;2023-08-07T10:30:39;1.30;;;0.50;;
53261;SDS011;39658;51.090;-1.786;2023-08-07T10:33:07;4.60;;;0.98;;
53261;SDS011;39658;51.090;-1.786;2023-08-07T10:35:35;2.38;;;0.77;;
53261;SDS011;39658;51.090;-1.786;2023-08-07T10:38:05;3.95;;;0.80;;
53261;SDS011;39658;51.090;-1.786;2023-08-07T10:40:33;2.40;;;0.73;;
53261;SDS011;39658;51.090;-1.786;2023-08-07T10:43:11;5.30;;;1.10;;
53261;SDS011;39658;51.090;-1.786;2023-08-07T10:45:40;4.90;;;0.82;;
53261;SDS011;39658;51.090;-1.786;2023-08-07T10:48:08;14.25;;;1.40;;
53261;SDS011;39658;51.090;-1.786;2023-08-07T10:50:48;5.63;;;0.70;;
53261;SDS011;39658;51.090;-1.786;2023-08-07T10:53:20;2.72;;;1.15;;
53261;SDS011;39658;51.090;-1.786;2023-08-07T10:55:48;3.45;;;0.70;;
53261;SDS011;39658;51.090;-1.786;2023-08-07T10:58:21;2.08;;;1.00;;
53261;SDS011;39658;51.090;-1.786;2023-08-07T11:00:51;1.77;;;0.90;;
53261;SDS011;39658;51.090;-1.786;2023-08-07T11:03:40;2.80;;;0.88;;
53261;SDS011;39658;51.090;-1.786;2023-08-07T11:06:08;2.90;;;1.00;;
53261;SDS011;39658;51.090;-1.786;2023-08-07T11:08:35;4.60;;;0.98;;
53261;SDS011;39658;51.090;-1.786;2023-08-07T11:11:04;2.00;;;0.70;;
53261;SDS011;39658;51.090;-1.786;2023-08-07T11:13:31;3.00;;;1.00;;
53261;SDS011;39658;51.090;-1.786;2023-08-07T11:15:59;4.38;;;1.17;;
53261;SDS011;39658;51.090;-1.786;2023-08-07T11:18:26;2.78;;;1.02;;
53261;SDS011;39658;51.090;-1.786;2023-08-07T11:20:53;5.10;;;1.13;;
53261;SDS011;39658;51.090;-1.786;2023-08-07T11:23:22;4.53;;;1.13;;
53261;SDS011;39658;51.090;-1.786;2023-08-07T11:25:50;2.33;;;0.60;;
53261;SDS011;39658;51.090;-1.786;2023-08-07T11:28:18;3.00;;;0.73;;
53261;SDS011;39658;51.090;-1.786;2023-08-07T11:30:45;2.30;;;0.93;;
53261;SDS011;39658;51.090;-1.786;2023-08-07T11:33:13;2.72;;;1.30;;
53261;SDS011;39658;51.090;-1.786;2023-08-07T11:35:41;3.33;;;1.05;;
53261;SDS011;39658;51.090;-1.786;2023-08-07T11:38:08;5.15;;;0.80;;
53261;SDS011;39658;51.090;-1.786;2023-08-07T11:40:35;2.05;;;0.73;;
53261;SDS011;39658;51.090;-1.786;2023-08-07T11:43:02;1.65;;;0.60;;
53261;SDS011;39658;51.090;-1.786;2023-08-07T11:45:28;2.33;;;1.02;;
53261;SDS011;39658;51.090;-1.786;2023-08-07T11:47:55;2.80;;;0.98;;
53261;SDS011;39658;51.090;-1.786;2023-08-07T11:50:25;4.18;;;0.90;;
53261;SDS011;39658;51.090;-1.786;2023-08-07T11:52:54;3.15;;;1.20;;
53261;SDS011;39658;51.090;-1.786;2023-08-07T11:55:25;3.67;;;0.90;;
53261;SDS011;39658;51.090;-1.786;2023-08-07T11:57:54;2.95;;;1.45;;
53261;SDS011;39658;51.090;-1.786;2023-08-07T12:00:24;3.33;;;1.08;;
53261;SDS011;39658;51.090;-1.786;2023-08-07T12:02:52;8.70;;;1.40;;
53261;SDS011;39658;51.090;-1.786;2023-08-07T12:05:19;4.18;;;1.23;;
53261;SDS011;39658;51.090;-1.786;2023-08-07T12:07:48;2.55;;;0.93;;
53261;SDS011;39658;51.090;-1.786;2023-08-07T12:10:15;2.40;;;1.10;;
53261;SDS011;39658;51.090;-1.786;2023-08-07T12:12:42;4.30;;;1.05;;
53261;SDS011;39658;51.090;-1.786;2023-08-07T12:15:09;4.80;;;1.00;;
53261;SDS011;39658;51.090;-1.786;2023-08-07T12:17:36;3.00;;;1.05;;
53261;SDS011;39658;51.090;-1.786;2023-08-07T12:20:04;7.50;;;1.20;;
53261;SDS011;39658;51.090;-1.786;2023-08-07T12:22:35;3.58;;;1.20;;
53261;SDS011;39658;51.090;-1.786;2023-08-07T12:25:04;4.20;;;1.23;;
53261;SDS011;39658;51.090;-1.786;2023-08-07T12:27:31;3.28;;;1.10;;
53261;SDS011;39658;51.090;-1.786;2023-08-07T12:29:58;4.28;;;1.33;;
53261;SDS011;39658;51.090;-1.786;2023-08-07T12:32:24;7.13;;;1.33;;
53261;SDS011;39658;51.090;-1.786;2023-08-07T12:34:51;3.70;;;1.33;;
53261;SDS011;39658;51.090;-1.786;2023-08-07T12:37:20;4.05;;;1.10;;
53261;SDS011;39658;51.090;-1.786;2023-08-07T12:39:48;4.05;;;1.10;;
53261;SDS011;39658;51.090;-1.786;2023-08-07T12:42:16;4.65;;;1.35;;
53261;SDS011;39658;51.090;-1.786;2023-08-07T12:44:42;4.72;;;2.03;;
53261;SDS011;39658;51.090;-1.786;2023-08-07T12:47:09;6.35;;;2.13;;
53261;SDS011;39658;51.090;-1.786;2023-08-07T12:49:36;5.03;;;1.27;;
53261;SDS011;39658;51.090;-1.786;2023-08-07T12:52:03;6.82;;;1.00;;
53261;SDS011;39658;51.090;-1.786;2023-08-07T12:54:30;2.22;;;0.80;;
53261;SDS011;39658;51.090;-1.786;2023-08-07T12:56:57;5.78;;;1.42;;
53261;SDS011;39658;51.090;-1.786;2023-08-07T12:59:25;3.97;;;1.35;;
53261;SDS011;39658;51.090;-1.786;2023-08-07T13:01:52;2.22;;;0.88;;
53261;SDS011;39658;51.090;-1.786;2023-08-07T13:04:19;4.45;;;1.13;;
53261;SDS011;39658;51.090;-1.786;2023-08-07T13:06:46;4.63;;;2.10;;
53261;SDS011;39658;51.090;-1.786;2023-08-07T13:09:14;4.68;;;1.35;;
53261;SDS011;39658;51.090;-1.786;2023-08-07T13:11:41;3.38;;;1.02;;
53261;SDS011;39658;51.090;-1.786;2023-08-07T13:14:08;3.97;;;1.45;;
53261;SDS011;39658;51.090;-1.786;2023-08-07T13:16:36;4.30;;;1.10;;
53261;SDS011;39658;51.090;-1.786;2023-08-07T13:19:02;4.85;;;1.48;;
53261;SDS011;39658;51.090;-1.786;2023-08-07T13:21:29;4.03;;;1.10;;
53261;SDS011;39658;51.090;-1.786;2023-08-07T13:23:56;4.85;;;1.40;;
53261;SDS011;39658;51.090;-1.786;2023-08-07T13:26:23;3.60;;;1.13;;
53261;SDS011;39658;51.090;-1.786;2023-08-07T13:28:49;4.50;;;1.10;;
53261;SDS011;39658;51.090;-1.786;2023-08-07T13:31:16;4.32;;;1.50;;
53261;SDS011;39658;51.090;-1.786;2023-08-07T13:33:44;3.83;;;1.23;;
53261;SDS011;39658;51.090;-1.786;2023-08-07T13:36:11;4.53;;;1.02;;
53261;SDS011;39658;51.090;-1.786;2023-08-07T13:38:38;3.40;;;1.02;;
53261;SDS011;39658;51.090;-1.786;2023-08-07T13:41:04;4.03;;;1.48;;
53261;SDS011;39658;51.090;-1.786;2023-08-07T13:43:31;5.97;;;1.08;;
53261;SDS011;39658;51.090;-1.786;2023-08-07T13:45:58;4.93;;;1.17;;
53261;SDS011;39658;51.090;-1.786;2023-08-07T13:48:25;4.32;;;1.02;;
53261;SDS011;39658;51.090;-1.786;2023-08-07T13:50:54;3.55;;;1.15;;
53261;SDS011;39658;51.090;-1.786;2023-08-07T13:53:21;2.90;;;1.02;;
53261;SDS011;39658;51.090;-1.786;2023-08-07T13:55:49;3.70;;;1.40;;
53261;SDS011;39658;51.090;-1.786;2023-08-07T13:58:15;5.82;;;1.45;;
53261;SDS011;39658;51.090;-1.786;2023-08-07T14:00:42;2.90;;;0.82;;
53261;SDS011;39658;51.090;-1.786;2023-08-07T14:03:09;3.50;;;1.20;;
53261;SDS011;39658;51.090;-1.786;2023-08-07T14:05:37;2.35;;;0.63;;
53261;SDS011;39658;51.090;-1.786;2023-08-07T14:08:05;5.93;;;1.00;;
53261;SDS011;39658;51.090;-1.786;2023-08-07T14:10:34;6.20;;;1.23;;
53261;SDS011;39658;51.090;-1.786;2023-08-07T14:13:01;5.80;;;1.70;;
53261;SDS011;39658;51.090;-1.786;2023-08-07T14:15:28;3.33;;;1.10;;
53261;SDS011;39658;51.090;-1.786;2023-08-07T14:17:55;2.80;;;0.73;;
53261;SDS011;39658;51.090;-1.786;2023-08-07T14:20:22;4.85;;;0.70;;
53261;SDS011;39658;51.090;-1.786;2023-08-07T14:22:49;4.43;;;0.77;;
53261;SDS011;39658;51.090;-1.786;2023-08-07T14:25:18;5.60;;;0.98;;
53261;SDS011;39658;51.090;-1.786;2023-08-07T14:27:46;3.95;;;1.20;;
53261;SDS011;39658;51.090;-1.786;2023-08-07T14:30:13;2.85;;;1.20;;
53261;SDS011;39658;51.090;-1.786;2023-08-07T14:32:41;5.22;;;1.85;;